Etusivu
METAR-TAF:

METAR-TAF

Lentoasemat :

Shanghai Pudongin kansainvälinen lentoasema

Shanghai-Pudong, Kiina

Leveyspiiri: 31-07N, Pituuspiiri: 121-46E, korkeus merenpinnasta: 4 m

Tämänhetkinen sää

Tämä raportti tehtiin 19 minuuttia sitten, kello 15.30 UTC
Tuuli 4 kn etelästä, vaihdellen etelän/kaakon ja lounaan välillä
Lämpötila 7°C
Kosteus 81%
Ilmanpaine 1023 hPa
Näkyvyys: 8000 m

METAR: ZSPD 091530Z 19002MPS 160V220 8000 NSC 07/04 Q1023 NOSIG

Aika: 23:49 (15:49 UTC)

Sääennuste

Tämä raportti tehtiin 6 tuntia ja 28 minuuttia sitten, kello 09.21 UTC
Ennuste voimassa 09. päivästä klo 12 UTC - 10. päivään klo 12 UTC
Tuuli 6 kn etelästä/lounaasta
Näkyvyys: 5000 m
Hajanaisia pilviä 1600 ft:n korkeudessa
utua

TAF: ZSPD 090921Z 0912/1012 20003MPS 5000 BR SCT016 TX16/1006Z TN03/0921Z

Säähavainnot ja -ennusteet yli 4000 lentoasemalta (METAR- ja TAF-raportit).

Käytössä olevat sääasemat on merkitty karttaan keltaisilla ja punaisilla pisteillä.

Aseta hiiri pisteen päälle nähdäksesi sääaseman nimen.

Klikkaa sitten nähdäksesi säähavainnot ja -ennusteet.

Kartan vaihtaminen: klikkaa mustalla rastilla varustettuja vihreitä pisteitä, niin voit zoomata sisään; viivalla varustettua vihreää pistettä, niin voit zoomata ulos tai vihreitä nuolia, niin pääset viereisille kartoille.


METAR-TAF: